createdAt,value
2024-03-05T08:05:05.968Z,45.50
2024-03-05T08:15:40.955Z,34.10
2024-03-05T08:26:15.891Z,30.50
2024-03-05T08:36:51.463Z,27.70
2024-03-05T08:47:26.564Z,23.40
2024-03-05T08:58:02.048Z,24.40
2024-03-05T09:08:38.684Z,22.40
2024-03-05T09:19:15.643Z,20.90
2024-03-05T09:29:50.523Z,14.10
2024-03-05T09:40:25.748Z,11.40
2024-03-05T09:51:01.205Z,12.10
2024-03-05T10:01:38.541Z,4.10
2024-03-05T10:12:16.947Z,1.10
2024-03-05T10:22:53.467Z,1.00
2024-03-05T10:33:31.184Z,1.00
2024-03-05T10:44:08.428Z,1.00
2024-03-05T10:54:46.822Z,1.00
2024-03-05T11:05:22.194Z,1.00
2024-03-05T11:15:57.943Z,1.00
2024-03-05T11:26:35.141Z,1.00
2024-03-05T11:37:15.841Z,1.00
2024-03-05T11:47:51.423Z,1.00
2024-03-05T11:58:27.348Z,1.00
2024-03-05T12:09:22.612Z,1.00
2024-03-05T12:20:10.033Z,1.00
2024-03-05T12:30:45.464Z,1.00
2024-03-05T12:41:21.600Z,1.00
2024-03-05T12:52:03.121Z,1.00
2024-03-05T13:02:39.334Z,1.00
2024-03-05T13:13:14.352Z,1.00
2024-03-05T13:23:49.224Z,1.00
2024-03-05T13:34:24.361Z,1.00
2024-03-05T13:44:58.851Z,1.00
2024-03-05T13:55:34.149Z,1.00
2024-03-05T14:06:09.203Z,1.00
2024-03-05T14:16:45.885Z,1.00
2024-03-05T14:27:20.798Z,1.00
2024-03-05T14:37:59.530Z,1.00
2024-03-05T14:48:35.583Z,1.00
2024-03-05T14:59:10.913Z,1.00
2024-03-05T15:09:46.769Z,1.00
2024-03-05T15:20:23.189Z,1.00
2024-03-05T15:30:58.116Z,1.00
2024-03-05T15:41:33.067Z,1.00
